Time;durP1;ratioP1;P1;durP2;ratioP2;P2;SDS_P1;SDS_P2;PMS_P1;PMS_P2;Temp;Humidity;BMP_temperature;BMP_pressure;BME280_temperature;BME280_humidity;BME280_pressure;Samples;Min_cycle;Max_cycle;Signal;HPM_P1;HPM_P2
2022/08/19 00:01:29;;;;;;;14.98;10.98;;;;;;;18.31;83.06;101272.63;4914233;29;20039;-82
2022/08/19 00:04:01;;;;;;;12.07;10.77;;;;;;;18.28;82.95;101270.97;4906408;29;21735;-82
2022/08/19 00:06:28;;;;;;;14.10;11.85;;;;;;;18.30;83.35;101274.47;4902549;29;20036;-83
2022/08/19 00:08:55;;;;;;;13.50;11.95;;;;;;;18.29;83.58;101272.69;4900565;29;20060;-83
2022/08/19 00:11:21;;;;;;;19.42;11.55;;;;;;;18.25;83.61;101260.41;4901465;29;20035;-83
2022/08/19 00:13:49;;;;;;;13.13;11.82;;;;;;;18.26;82.30;101276.38;4900882;29;20104;-84
2022/08/19 00:16:20;;;;;;;13.05;11.75;;;;;;;18.22;82.79;101268.56;4906642;29;20034;-85
2022/08/19 00:18:47;;;;;;;13.18;11.48;;;;;;;18.17;84.36;101265.22;4892879;29;20064;-85
2022/08/19 00:21:14;;;;;;;15.02;11.48;;;;;;;18.20;83.90;101270.44;4900277;29;20510;-84
2022/08/19 00:23:40;;;;;;;11.80;10.60;;;;;;;18.09;81.48;101264.72;4883076;29;20163;-84
2022/08/19 00:26:06;;;;;;;13.65;12.25;;;;;;;18.10;83.54;101269.13;4898072;29;20107;-84
2022/08/19 00:28:33;;;;;;;17.38;12.55;;;;;;;18.13;84.54;101280.59;4896007;29;20032;-84
2022/08/19 00:30:59;;;;;;;14.70;13.20;;;;;;;18.14;84.00;101271.59;4902026;29;20154;-84
2022/08/19 00:33:25;;;;;;;18.70;14.27;;;;;;;18.09;84.85;101273.63;4873708;29;20119;-84
2022/08/19 00:35:51;;;;;;;15.93;13.70;;;;;;;18.09;85.08;101268.28;4893753;29;20091;-85
2022/08/19 00:38:17;;;;;;;16.15;13.20;;;;;;;18.00;85.56;101264.22;4888305;29;20120;-84
2022/08/19 00:40:46;;;;;;;15.32;13.35;;;;;;;18.02;85.35;101283.75;4893331;29;20115;-84
2022/08/19 00:43:13;;;;;;;15.02;13.43;;;;;;;17.93;85.59;101272.63;4902640;29;20036;-84
2022/08/19 00:45:43;;;;;;;15.68;14.07;;;;;;;17.86;86.35;101274.69;4885283;29;20119;-83
2022/08/19 00:48:09;;;;;;;20.33;14.85;;;;;;;17.91;86.71;101279.84;4907384;29;20036;-83
2022/08/19 00:50:35;;;;;;;18.45;15.70;;;;;;;17.88;86.26;101271.94;4902170;29;20404;-83
2022/08/19 00:53:02;;;;;;;22.77;14.95;;;;;;;17.89;86.04;101266.50;4886734;29;20099;-84
2022/08/19 00:55:31;;;;;;;18.23;15.18;;;;;;;17.86;85.53;101263.13;4886602;29;20039;-83
2022/08/19 00:58:13;;;;;;;18.88;14.27;;;;;;;17.89;84.02;101265.66;4886471;29;20122;-84
2022/08/19 01:00:39;;;;;;;18.17;15.43;;;;;;;17.83;84.43;101267.66;4900880;29;20059;-84
2022/08/19 01:03:09;;;;;;;17.55;15.38;;;;;;;17.82;84.20;101268.59;4902019;29;20021;-83
2022/08/19 01:05:37;;;;;;;24.80;18.47;;;;;;;17.82;86.39;101273.09;4902936;29;20479;-84
2022/08/19 01:08:05;;;;;;;22.58;16.65;;;;;;;17.77;85.40;101261.69;4885486;29;20040;-84
2022/08/19 01:10:36;;;;;;;21.25;17.40;;;;;;;17.70;86.86;101257.53;4901920;29;20068;-84
2022/08/19 01:13:06;;;;;;;23.15;17.15;;;;;;;17.75;86.58;101276.94;4881765;29;20066;-84
2022/08/19 01:15:38;;;;;;;20.05;17.02;;;;;;;17.78;85.46;101280.38;4886973;29;20056;-84
2022/08/19 01:18:10;;;;;;;21.80;17.75;;;;;;;17.79;85.59;101279.41;4883778;29;20025;-84
2022/08/19 01:20:36;;;;;;;20.80;18.60;;;;;;;17.81;85.68;101285.63;4898145;29;20044;-84
2022/08/19 01:23:03;;;;;;;20.75;18.27;;;;;;;17.78;85.54;101276.81;4893896;29;20131;-84
2022/08/19 01:25:38;;;;;;;20.38;17.65;;;;;;;17.75;85.46;101275.13;4893501;29;20093;-85
2022/08/19 01:28:04;;;;;;;23.48;18.20;;;;;;;17.75;85.83;101277.81;4897707;29;20104;-84
2022/08/19 01:30:33;;;;;;;24.17;19.13;;;;;;;17.73;85.74;101279.72;4881148;29;20037;-84
2022/08/19 01:33:00;;;;;;;23.73;18.70;;;;;;;17.68;85.82;101267.44;4874962;29;20064;-84
2022/08/19 01:35:29;;;;;;;23.50;19.25;;;;;;;17.71;85.71;101280.72;4898262;29;20492;-84
2022/08/19 01:37:57;;;;;;;25.50;19.52;;;;;;;17.70;86.75;101278.97;4892882;29;20111;-84
2022/08/19 01:40:26;;;;;;;24.25;19.80;;;;;;;17.61;87.61;101277.56;4918955;29;20039;-85
2022/08/19 01:42:53;;;;;;;28.23;21.23;;;;;;;17.54;88.51;101273.41;4873609;29;20036;-84
2022/08/19 01:45:21;;;;;;;23.17;19.40;;;;;;;17.56;87.65;101279.59;4882795;29;20131;-83
2022/08/19 01:47:47;;;;;;;22.73;19.25;;;;;;;17.50;86.44;101275.34;4883327;29;20045;-83
2022/08/19 01:50:13;;;;;;;24.15;20.40;;;;;;;17.46;88.18;101270.19;4899906;29;20119;-82
2022/08/19 01:52:40;;;;;;;26.30;18.98;;;;;;;17.41;86.83;101273.97;4896286;29;20124;-83
2022/08/19 01:55:09;;;;;;;23.50;19.50;;;;;;;17.40;86.60;101269.53;4896837;29;20048;-83
2022/08/19 01:57:35;;;;;;;23.30;19.58;;;;;;;17.42;86.67;101264.13;4898430;29;20036;-83
2022/08/19 02:00:09;;;;;;;26.58;21.55;;;;;;;17.38;87.89;101262.50;4903443;29;20044;-83
2022/08/19 02:02:37;;;;;;;29.20;20.20;;;;;;;17.41;88.32;101262.38;4899969;29;20584;-83
2022/08/19 02:05:03;;;;;;;25.00;19.73;;;;;;;17.36;87.98;101272.44;4901506;29;20048;-83
2022/08/19 02:07:29;;;;;;;26.98;20.35;;;;;;;17.37;87.83;101276.84;4882870;29;20047;-83
2022/08/19 02:09:55;;;;;;;27.27;20.75;;;;;;;17.38;89.12;101276.78;4882821;29;20036;-83
2022/08/19 02:12:21;;;;;;;25.77;20.77;;;;;;;17.35;88.92;101281.38;4882626;29;20401;-83
2022/08/19 02:14:47;;;;;;;24.23;20.85;;;;;;;17.33;88.43;101280.56;4882618;29;20028;-83
2022/08/19 02:17:13;;;;;;;25.05;20.60;;;;;;;17.29;88.02;101287.88;4902402;29;20048;-84
2022/08/19 02:19:39;;;;;;;27.77;21.20;;;;;;;17.29;87.97;101287.88;4885564;29;20043;-84
2022/08/19 02:22:04;;;;;;;24.67;20.85;;;;;;;17.29;87.57;101287.00;4884619;29;20053;-83
2022/08/19 02:24:30;;;;;;;26.35;21.55;;;;;;;17.31;87.16;101296.72;4851595;29;20132;-84
2022/08/19 02:26:56;;;;;;;26.42;21.08;;;;;;;17.26;87.15;101284.44;4882520;29;20043;-83
2022/08/19 02:29:21;;;;;;;24.65;20.92;;;;;;;17.25;87.47;101290.75;4899762;29;20041;-83
2022/08/19 02:31:47;;;;;;;26.58;21.75;;;;;;;17.19;89.08;101283.84;4895195;29;20044;-83
2022/08/19 02:34:13;;;;;;;28.77;21.52;;;;;;;17.22;89.82;101290.88;4902797;29;20052;-83
2022/08/19 02:36:38;;;;;;;27.48;22.30;;;;;;;17.17;90.67;101294.59;4890290;29;20434;-83
2022/08/19 02:39:04;;;;;;;27.75;21.90;;;;;;;17.17;91.09;101296.41;4902325;29;20128;-83
2022/08/19 02:41:32;;;;;;;30.25;23.27;;;;;;;17.14;90.90;101292.06;4897861;29;20044;-82
2022/08/19 02:44:00;;;;;;;31.38;22.45;;;;;;;17.18;90.76;101290.13;4901511;29;20071;-82
2022/08/19 02:46:31;;;;;;;28.17;21.95;;;;;;;17.17;90.37;101288.41;4897958;29;20040;-82
2022/08/19 02:49:00;;;;;;;26.10;21.90;;;;;;;17.24;89.99;101300.59;4903290;29;20369;-82
2022/08/19 02:51:32;;;;;;;28.63;22.83;;;;;;;17.22;90.46;101299.78;4881739;29;20037;-82
2022/08/19 02:53:59;;;;;;;26.13;19.75;;;;;;;17.20;89.88;101305.19;4884277;29;20043;-82
2022/08/19 02:56:26;;;;;;;28.98;22.42;;;;;;;17.22;89.96;101306.94;4901915;29;20496;-82
2022/08/19 02:58:53;;;;;;;29.83;22.52;;;;;;;17.20;90.25;101305.19;4901154;29;20043;-82
2022/08/19 03:01:20;;;;;;;32.63;21.80;;;;;;;17.25;90.13;101313.00;4898547;29;20481;-82
2022/08/19 03:03:46;;;;;;;30.73;21.40;;;;;;;17.24;88.37;101316.63;4898656;29;20041;-82
2022/08/19 03:06:14;;;;;;;25.88;20.42;;;;;;;17.19;88.38;101306.13;4882835;29;20143;-81
2022/08/19 03:08:43;;;;;;;30.20;20.52;;;;;;;17.21;89.13;101303.41;4881713;29;20115;-82
2022/08/19 03:11:29;;;;;;;26.08;21.15;;;;;;;17.22;88.03;101302.44;4899785;29;20029;-82
2022/08/19 03:13:55;;;;;;;27.63;20.02;;;;;;;17.16;88.26;101292.88;4875669;29;20143;-82
2022/08/19 03:16:25;;;;;;;29.98;20.73;;;;;;;17.17;89.31;101293.75;4894421;29;20123;-83
2022/08/19 03:18:52;;;;;;;25.48;20.50;;;;;;;17.10;89.76;101294.94;4893927;29;20072;-83
2022/08/19 03:21:24;;;;;;;25.85;21.63;;;;;;;17.12;89.74;101303.78;4899259;29;20135;-83
2022/08/19 03:23:50;;;;;;;23.58;20.25;;;;;;;17.07;89.31;101305.78;4881352;29;20110;-82
2022/08/19 03:26:16;;;;;;;23.02;19.40;;;;;;;17.08;88.04;101312.84;4883822;29;20508;-82
2022/08/19 03:28:44;;;;;;;31.95;21.73;;;;;;;17.03;89.78;101306.81;4899714;29;20060;-83
2022/08/19 03:31:13;;;;;;;23.60;19.60;;;;;;;16.98;88.83;101305.19;4900583;29;20456;-83
2022/08/19 03:33:40;;;;;;;27.17;20.77;;;;;;;16.93;88.87;101293.81;4880615;29;20092;-82
2022/08/19 03:36:10;;;;;;;27.42;20.25;;;;;;;16.92;89.54;101296.56;4879881;29;20060;-83
2022/08/19 03:38:38;;;;;;;24.13;20.38;;;;;;;16.92;89.03;101299.25;4881042;29;20119;-83
2022/08/19 03:41:10;;;;;;;23.08;19.60;;;;;;;16.87;88.29;101302.09;4894856;29;20485;-83
2022/08/19 03:43:37;;;;;;;25.00;21.50;;;;;;;16.82;90.53;101312.13;4905132;29;20036;-83
2022/08/19 03:46:06;;;;;;;29.63;22.13;;;;;;;16.80;90.61;101305.09;4891006;29;20100;-83
2022/08/19 03:48:33;;;;;;;26.95;20.52;;;;;;;16.79;89.74;101298.88;4887329;29;20037;-83
2022/08/19 03:50:59;;;;;;;31.05;22.13;;;;;;;16.76;91.39;101298.94;4891210;29;20032;-83
2022/08/19 03:53:27;;;;;;;26.30;22.17;;;;;;;16.76;90.17;101288.25;4911800;29;20108;-82
2022/08/19 03:55:54;;;;;;;29.95;22.50;;;;;;;16.75;89.80;101291.88;4878377;29;20409;-83
2022/08/19 03:58:22;;;;;;;24.13;21.48;;;;;;;16.72;89.81;101292.88;4890946;29;20048;-83
2022/08/19 04:00:47;;;;;;;29.85;22.08;;;;;;;16.66;89.22;101285.06;4896626;29;20036;-83
2022/08/19 04:03:13;;;;;;;31.75;24.48;;;;;;;16.62;91.68;101282.63;4865708;29;20047;-83
2022/08/19 04:05:38;;;;;;;29.33;24.48;;;;;;;16.60;91.29;101285.34;4880854;29;20043;-83
2022/08/19 04:08:05;;;;;;;30.17;22.75;;;;;;;16.53;89.70;101287.38;4890870;29;20483;-83
2022/08/19 04:10:35;;;;;;;29.25;23.27;;;;;;;16.54;90.20;101296.25;4897380;29;20044;-83
2022/08/19 04:13:00;;;;;;;27.63;21.88;;;;;;;16.55;89.57;101295.34;4897568;29;20088;-83
2022/08/19 04:15:28;;;;;;;26.45;22.00;;;;;;;16.53;89.28;101291.84;4883999;29;20443;-83
2022/08/19 04:17:54;;;;;;;30.85;23.65;;;;;;;16.51;90.35;101291.91;4896745;29;20072;-83
2022/08/19 04:20:20;;;;;;;29.00;23.40;;;;;;;16.45;90.27;101289.50;4880861;29;20140;-83
2022/08/19 04:22:45;;;;;;;32.00;24.20;;;;;;;16.41;90.65;101290.53;4909927;29;20452;-83
2022/08/19 04:25:11;;;;;;;29.30;23.10;;;;;;;16.33;88.59;101288.16;4896679;29;20485;-83
2022/08/19 04:27:36;;;;;;;28.45;22.10;;;;;;;16.29;88.84;101289.19;4880861;29;20037;-83
2022/08/19 04:30:03;;;;;;;26.02;22.38;;;;;;;16.28;89.73;101291.94;4896621;29;20068;-83
2022/08/19 04:32:28;;;;;;;29.33;23.52;;;;;;;16.24;89.98;101284.97;4882488;29;20037;-84
2022/08/19 04:34:56;;;;;;;32.85;23.00;;;;;;;16.23;90.69;101288.59;4893780;29;20448;-83
2022/08/19 04:37:22;;;;;;;29.80;22.92;;;;;;;16.16;90.34;101281.72;4884492;29;20044;-83
2022/08/19 04:42:38;;;;;;;26.58;22.00;;;;;;;16.15;91.37;101290.66;4883087;29;20099;-83
2022/08/19 04:45:11;;;;;;;31.15;25.60;;;;;;;16.12;93.15;101281.84;4883458;29;20123;-83
2022/08/19 04:47:39;;;;;;;29.33;23.70;;;;;;;16.12;90.81;101296.97;4902944;29;20028;-83
2022/08/19 04:50:06;;;;;;;33.63;26.05;;;;;;;16.13;93.25;101299.59;4882565;29;20112;-83
2022/08/19 04:52:32;;;;;;;36.08;27.17;;;;;;;16.13;92.62;101299.59;4903746;29;20028;-83
2022/08/19 04:54:58;;;;;;;33.40;26.30;;;;;;;16.15;92.42;101296.88;4865181;29;20095;-83
2022/08/19 04:57:24;;;;;;;35.50;26.88;;;;;;;16.16;92.90;101300.44;4891855;29;20105;-83
2022/08/19 04:59:54;;;;;;;34.88;27.60;;;;;;;16.15;94.33;101296.00;4873083;29;20574;-83
2022/08/19 05:02:20;;;;;;;35.50;26.93;;;;;;;16.11;93.63;101298.78;4878721;29;20037;-83
2022/08/19 05:04:45;;;;;;;36.45;26.92;;;;;;;16.11;93.31;101309.47;4871897;29;20281;-83
2022/08/19 05:07:11;;;;;;;29.98;23.20;;;;;;;16.08;91.87;101308.72;4881077;29;20044;-83
2022/08/19 05:09:37;;;;;;;34.45;25.88;;;;;;;16.10;92.91;101310.41;4880498;29;20049;-83
2022/08/19 05:12:03;;;;;;;34.13;26.48;;;;;;;16.13;93.94;101314.78;4880360;29;20052;-83
2022/08/19 05:14:29;;;;;;;33.03;25.08;;;;;;;16.12;93.36;101308.56;4883464;29;20480;-84
2022/08/19 05:16:54;;;;;;;34.25;26.60;;;;;;;16.13;93.10;101310.28;4895980;29;20639;-84
2022/08/19 05:24:48;;;;;;;41.22;29.17;;;;;;;16.24;93.59;101336.59;4879645;29;20037;-84
2022/08/19 05:27:14;;;;;;;40.80;30.92;;;;;;;16.29;93.26;101339.97;4891122;29;20036;-84
2022/08/19 05:29:39;;;;;;;46.10;32.72;;;;;;;16.29;94.16;101333.75;4894779;29;20037;-83
2022/08/19 05:32:10;;;;;;;45.08;32.47;;;;;;;16.27;94.54;101344.53;4891458;29;20085;-84
2022/08/19 05:34:37;;;;;;;47.97;32.75;;;;;;;16.30;94.07;101340.88;4884070;29;20476;-84
2022/08/19 05:37:05;;;;;;;52.70;35.13;;;;;;;16.34;94.46;101342.47;4899250;29;20048;-84
2022/08/19 05:39:33;;;;;;;48.63;33.28;;;;;;;16.38;93.96;101343.25;4883790;29;20036;-83
2022/08/19 05:42:03;;;;;;;56.75;35.97;;;;;;;16.38;94.23;101346.78;4898630;29;20104;-84
2022/08/19 05:44:31;;;;;;;46.25;32.85;;;;;;;16.43;93.91;101357.31;4897766;29;20033;-83
2022/08/19 05:46:58;;;;;;;51.55;34.83;;;;;;;16.41;93.12;101349.34;4887783;29;20037;-83
2022/08/19 05:49:25;;;;;;;51.70;36.03;;;;;;;16.48;93.80;101355.31;4900756;29;20048;-84
2022/08/19 05:51:51;;;;;;;53.35;35.25;;;;;;;16.48;93.26;101353.53;4898359;29;20068;-84
2022/08/19 05:54:18;;;;;;;55.65;36.67;;;;;;;16.52;94.09;101356.97;4875035;29;20029;-84
2022/08/19 05:56:47;;;;;;;54.25;36.60;;;;;;;16.55;93.77;101348.81;4909709;29;20496;-84
2022/08/19 05:59:15;;;;;;;52.90;36.83;;;;;;;16.61;93.64;101351.25;4882873;29;20123;-83
2022/08/19 06:01:45;;;;;;;56.00;37.67;;;;;;;16.69;93.79;101359.84;4898188;29;20359;-84
2022/08/19 06:04:13;;;;;;;58.25;37.90;;;;;;;16.74;92.88;101343.59;4897889;29;20036;-83
2022/08/19 06:06:38;;;;;;;60.88;39.65;;;;;;;16.73;93.33;101337.38;4889575;29;20489;-84
2022/08/19 06:09:05;;;;;;;58.42;41.25;;;;;;;16.83;93.07;101347.75;4893448;29;20028;-84
2022/08/19 06:11:33;;;;;;;63.17;41.03;;;;;;;16.86;92.99;101347.63;4896938;29;20043;-83
2022/08/19 06:14:04;;;;;;;61.92;41.28;;;;;;;16.92;93.34;101339.38;4894499;29;20037;-83
2022/08/19 06:16:29;;;;;;;66.30;41.67;;;;;;;16.93;92.84;101336.63;4874701;29;20041;-84
2022/08/19 06:18:56;;;;;;;64.13;42.70;;;;;;;16.96;92.96;101328.50;4881540;29;20039;-84
2022/08/19 06:21:24;;;;;;;61.85;40.45;;;;;;;17.02;92.59;101330.03;4896938;29;20059;-84
2022/08/19 06:23:51;;;;;;;56.58;39.90;;;;;;;17.05;92.37;101326.38;4881225;29;20032;-84
2022/08/19 06:26:19;;;;;;;58.50;40.53;;;;;;;17.12;92.32;101335.88;4881827;29;20047;-83
2022/08/19 06:28:48;;;;;;;62.13;41.95;;;;;;;17.14;92.94;101321.50;4897697;29;20500;-83
2022/08/19 06:31:20;;;;;;;65.03;42.03;;;;;;;17.22;92.58;101331.03;4913219;29;20548;-83
2022/08/19 06:33:47;;;;;;;65.65;39.65;;;;;;;17.27;92.30;101329.88;4899358;29;20037;-83
2022/08/19 06:36:30;;;;;;;61.50;39.55;;;;;;;17.36;92.17;101334.00;4888545;29;20432;-83
2022/08/19 06:38:57;;;;;;;64.57;39.55;;;;;;;17.41;92.44;101332.84;4894408;29;20032;-83
2022/08/19 06:41:25;;;;;;;60.78;38.80;;;;;;;17.44;91.08;101336.34;4898452;29;20044;-83
2022/08/19 06:43:50;;;;;;;64.93;39.80;;;;;;;17.45;91.56;101333.59;4884615;29;20129;-84
2022/08/19 06:46:18;;;;;;;61.22;39.03;;;;;;;17.49;92.11;101335.22;4882043;29;20123;-83
2022/08/19 06:48:44;;;;;;;64.43;38.95;;;;;;;17.56;92.37;101335.81;4882175;29;20170;-83
2022/08/19 06:51:09;;;;;;;62.15;39.55;;;;;;;17.61;91.94;101325.78;4896401;29;20056;-83
2022/08/19 06:53:35;;;;;;;60.38;38.55;;;;;;;17.67;92.00;101330.84;4877961;29;20040;-83
2022/08/19 06:56:02;;;;;;;65.47;39.30;;;;;;;17.71;91.69;101327.13;4869576;29;20051;-83
2022/08/19 06:58:32;;;;;;;62.85;39.22;;;;;;;17.81;91.59;101344.56;4900080;29;20108;-83
2022/08/19 07:01:04;;;;;;;64.80;38.60;;;;;;;17.87;91.55;101339.84;4896964;29;20180;-83
2022/08/19 07:03:34;;;;;;;63.03;37.25;;;;;;;17.93;90.50;101343.16;4890487;29;20036;-83
2022/08/19 07:06:12;;;;;;;60.63;39.70;;;;;;;17.96;91.57;101339.47;4896476;29;20044;-83
2022/08/19 07:08:40;;;;;;;66.15;39.95;;;;;;;18.02;90.84;101342.72;4896605;29;20029;-83
2022/08/19 07:11:08;;;;;;;67.95;39.92;;;;;;;18.04;91.12;101346.19;4904668;29;20048;-83
2022/08/19 07:13:37;;;;;;;73.65;41.17;;;;;;;18.10;89.86;101344.19;4895438;29;20059;-83
2022/08/19 07:16:07;;;;;;;71.75;43.80;;;;;;;18.13;90.57;101354.78;4886773;29;20052;-84
2022/08/19 07:18:33;;;;;;;79.88;45.72;;;;;;;18.06;89.60;101346.13;4907474;29;20044;-83
2022/08/19 07:21:03;;;;;;;72.65;42.72;;;;;;;18.04;89.35;101348.00;4899220;29;20060;-83
2022/08/19 07:23:29;;;;;;;81.33;45.73;;;;;;;18.02;90.10;101357.94;4896394;29;20036;-83
2022/08/19 07:25:54;;;;;;;72.68;43.85;;;;;;;18.04;90.14;101361.41;4896462;29;20362;-84
2022/08/19 07:28:20;;;;;;;71.03;43.63;;;;;;;18.03;90.43;101359.69;4896430;29;20736;-84
2022/08/19 07:30:46;;;;;;;73.85;42.78;;;;;;;17.98;90.25;101367.06;4885895;29;20052;-84
2022/08/19 07:33:11;;;;;;;64.22;41.70;;;;;;;17.99;90.84;101361.63;4880237;29;20051;-83
2022/08/19 07:35:37;;;;;;;76.13;44.95;;;;;;;18.04;91.17;101361.41;4880687;29;20063;-84
2022/08/19 07:38:03;;;;;;;71.35;43.58;;;;;;;18.13;90.66;101369.06;4881995;29;20485;-84
2022/08/19 07:40:29;;;;;;;73.50;43.65;;;;;;;18.20;91.31;101365.16;4880037;29;20045;-83
2022/08/19 07:42:54;;;;;;;70.75;42.65;;;;;;;18.27;90.44;101365.72;4896221;29;20110;-83
2022/08/19 07:45:20;;;;;;;77.13;43.25;;;;;;;18.29;90.30;101365.66;4911998;29;20449;-84
2022/08/19 07:47:45;;;;;;;71.35;42.30;;;;;;;18.30;90.27;101362.94;4894674;29;20488;-84
2022/08/19 07:50:11;;;;;;;69.55;41.95;;;;;;;18.37;89.91;101367.06;4876832;29;20116;-84
2022/08/19 07:52:39;;;;;;;68.80;40.85;;;;;;;18.42;90.50;101375.78;4895348;29;20537;-84
2022/08/19 07:55:10;;;;;;;64.28;40.10;;;;;;;18.53;90.24;101385.13;4894743;29;20041;-83
2022/08/19 07:57:36;;;;;;;63.50;38.55;;;;;;;18.48;89.91;101375.47;4896136;29;20032;-84
2022/08/19 08:00:03;;;;;;;59.30;37.10;;;;;;;18.59;89.95;101390.19;4895762;29;20523;-85
2022/08/19 08:02:39;;;;;;;67.80;37.67;;;;;;;18.59;88.81;101396.41;4883037;29;20036;-84
2022/08/19 08:10:33;;;;;;;64.90;35.42;;;;;;;18.55;88.48;101385.94;4882482;29;20054;-84
2022/08/19 08:12:59;;;;;;;59.15;34.42;;;;;;;18.62;88.50;101393.63;4879667;29;20037;-84
2022/08/19 08:15:25;;;;;;;62.33;35.05;;;;;;;18.59;89.19;101390.19;4892084;29;20119;-84
2022/08/19 08:17:50;;;;;;;60.08;36.15;;;;;;;18.62;88.93;101398.09;4895117;29;20080;-85
2022/08/19 08:20:17;;;;;;;59.35;35.58;;;;;;;18.60;89.37;101400.00;4906108;29;20056;-85
2022/08/19 08:25:32;;;;;;;59.58;35.78;;;;;;;18.70;88.87;101398.63;4908740;29;20054;-85
2022/08/19 08:28:00;;;;;;;59.80;35.50;;;;;;;18.73;89.36;101406.50;4914719;29;20053;-85
2022/08/19 08:30:27;;;;;;;61.53;35.92;;;;;;;18.72;88.63;101398.53;4898702;29;20020;-84
2022/08/19 08:32:53;;;;;;;61.22;35.13;;;;;;;18.72;88.13;101414.63;4898721;29;20071;-84
2022/08/19 08:35:22;;;;;;;59.67;33.88;;;;;;;18.75;88.71;101419.88;4898724;29;20036;-84
2022/08/19 08:37:50;;;;;;;48.30;33.53;;;;;;;18.75;88.18;101426.09;4898748;29;20033;-84
2022/08/19 08:40:29;;;;;;;44.28;31.80;;;;;;;18.77;87.60;101421.56;4883132;29;20063;-85
2022/08/19 08:43:00;;;;;;;49.30;30.70;;;;;;;18.76;87.46;101424.31;4885398;29;20043;-85
2022/08/19 08:45:27;;;;;;;48.22;30.33;;;;;;;18.81;87.96;101430.34;4898539;29;20085;-85
2022/08/19 08:47:57;;;;;;;48.30;31.27;;;;;;;18.82;88.13;101424.03;4880420;29;20047;-85
2022/08/19 08:50:35;;;;;;;45.53;32.75;;;;;;;18.95;88.85;101435.06;4898476;29;20186;-85
2022/08/19 08:53:04;;;;;;;50.75;31.15;;;;;;;18.97;87.55;101428.69;4915474;29;20043;-85
2022/08/19 08:55:31;;;;;;;47.97;30.63;;;;;;;19.13;87.30;101428.81;4910059;29;20041;-85
2022/08/19 08:58:03;;;;;;;49.53;31.48;;;;;;;19.16;87.23;101434.00;4906861;29;20043;-84
2022/08/19 09:00:37;;;;;;;54.15;32.15;;;;;;;19.17;86.50;101427.72;4882652;29;20047;-85
2022/08/19 09:03:09;;;;;;;46.50;31.58;;;;;;;19.26;86.55;101435.34;4897779;29;20040;-86
2022/08/19 09:06:03;;;;;;;56.50;33.70;;;;;;;19.24;85.92;101420.25;4899679;29;20122;-85
2022/08/19 09:08:54;;;;;;;49.92;34.75;;;;;;;19.23;86.53;101431.91;4911631;29;20058;-85
2022/08/19 09:11:58;;;;;;;59.28;36.72;;;;;;;19.21;86.27;101426.59;4907210;29;20095;-85
2022/08/19 09:14:45;;;;;;;55.72;35.60;;;;;;;19.26;86.55;101429.97;4886235;29;20062;-85
2022/08/19 09:17:12;;;;;;;52.70;37.17;;;;;;;19.29;86.26;101421.75;4889562;29;20096;-85
2022/08/19 09:19:53;;;;;;;57.20;36.65;;;;;;;19.37;86.00;101433.94;4901967;29;20036;-85
2022/08/19 09:22:23;;;;;;;59.42;40.63;;;;;;;19.32;85.89;101426.97;4886065;29;20124;-85
2022/08/19 09:24:51;;;;;;;56.85;39.20;;;;;;;19.31;85.97;101427.91;4883468;29;20036;-85
2022/08/19 09:27:18;;;;;;;56.70;39.30;;;;;;;19.38;85.30;101436.53;4896511;29;20035;-85
2022/08/19 09:29:44;;;;;;;68.72;42.95;;;;;;;19.40;85.16;101445.38;4917608;29;20108;-85
2022/08/19 09:32:10;;;;;;;60.78;40.80;;;;;;;19.46;85.50;101438.81;4882975;29;20526;-85
2022/08/19 09:34:35;;;;;;;55.97;38.00;;;;;;;19.57;85.26;101441.88;4915614;29;20127;-85
2022/08/19 09:37:02;;;;;;;56.97;39.88;;;;;;;19.62;84.45;101444.31;4902294;29;20072;-85
2022/08/19 09:39:28;;;;;;;56.53;39.17;;;;;;;19.67;84.88;101436.91;4886585;29;20070;-84
2022/08/19 09:41:53;;;;;;;66.15;41.22;;;;;;;19.70;84.16;101442.16;4901722;29;20516;-85
2022/08/19 09:44:22;;;;;;;62.78;41.40;;;;;;;19.71;84.24;101439.41;4870288;29;20028;-85
2022/08/19 09:46:47;;;;;;;57.00;38.95;;;;;;;19.79;83.72;101440.81;4898842;29;20041;-85
2022/08/19 09:49:13;;;;;;;59.13;38.58;;;;;;;19.87;83.23;101447.53;4863627;29;20111;-84
2022/08/19 09:51:38;;;;;;;52.13;36.72;;;;;;;19.93;83.30;101440.97;4875681;29;20036;-84
2022/08/19 09:54:04;;;;;;;47.70;34.97;;;;;;;20.04;83.24;101443.97;4867121;29;20560;-85
2022/08/19 09:56:31;;;;;;;56.33;37.83;;;;;;;20.14;81.90;101436.31;4910282;29;20067;-85
2022/08/19 09:59:01;;;;;;;54.85;38.95;;;;;;;20.17;82.06;101453.13;4901237;29;20036;-85
2022/08/19 10:01:29;;;;;;;58.15;40.50;;;;;;;20.16;81.94;101451.41;4901246;29;20113;-84
2022/08/19 10:03:57;;;;;;;52.55;37.42;;;;;;;20.22;81.95;101443.97;4885513;29;20048;-84
2022/08/19 10:06:25;;;;;;;59.97;38.05;;;;;;;20.31;81.72;101452.41;4918193;29;20035;-84
2022/08/19 10:08:52;;;;;;;55.78;37.53;;;;;;;20.46;81.02;101448.03;4901102;29;20040;-84
2022/08/19 10:11:20;;;;;;;54.42;37.05;;;;;;;20.57;79.92;101444.81;4882535;29;20024;-84
2022/08/19 10:13:45;;;;;;;52.42;37.90;;;;;;;20.54;80.28;101443.09;4897597;29;20107;-84
2022/08/19 10:16:14;;;;;;;58.97;37.58;;;;;;;20.53;80.39;101449.47;4884016;29;20126;-84
2022/08/19 10:18:43;;;;;;;53.53;35.28;;;;;;;20.53;80.03;101449.47;4917514;29;20412;-84
2022/08/19 10:21:24;;;;;;;51.25;32.20;;;;;;;20.45;78.32;101448.13;4884949;29;20437;-84
2022/08/19 10:23:59;;;;;;;45.22;30.60;;;;;;;20.39;79.41;101438.56;4900143;29;20083;-84
2022/08/19 10:26:31;;;;;;;49.03;30.70;;;;;;;20.46;79.35;101437.28;4888233;29;20042;-84
2022/08/19 10:28:57;;;;;;;54.60;31.42;;;;;;;20.50;78.43;101432.59;4883775;29;20043;-84
2022/08/19 10:31:30;;;;;;;45.30;31.83;;;;;;;20.57;78.44;101431.34;4897538;29;20041;-85
2022/08/19 10:33:59;;;;;;;46.92;32.05;;;;;;;20.52;77.87;101428.00;4901527;29;20043;-84
2022/08/19 10:36:32;;;;;;;50.03;33.35;;;;;;;20.51;78.19;101437.91;4883055;29;20112;-85
2022/08/19 10:39:01;;;;;;;51.22;34.80;;;;;;;20.48;78.80;101443.47;4893668;29;20043;-85
2022/08/19 10:41:37;;;;;;;55.97;35.08;;;;;;;20.49;78.17;101447.88;4909153;29;20040;-84
2022/08/19 10:44:08;;;;;;;52.50;34.95;;;;;;;20.56;78.71;101448.47;4895591;29;20039;-84
2022/08/19 10:46:38;;;;;;;49.15;33.78;;;;;;;20.70;78.75;101442.34;4892005;29;20040;-85
2022/08/19 10:49:05;;;;;;;60.90;35.05;;;;;;;20.74;77.84;101443.88;4900882;29;20440;-85
2022/08/19 10:54:16;;;;;;;49.22;35.55;;;;;;;20.90;77.30;101433.16;4906554;29;20547;-84
2022/08/19 10:56:54;;;;;;;51.45;34.58;;;;;;;21.02;76.56;101438.72;4903810;29;20040;-84
2022/08/19 10:59:23;;;;;;;49.40;34.72;;;;;;;21.10;76.53;101424.81;4916422;29;20040;-84
2022/08/19 11:01:51;;;;;;;48.65;34.40;;;;;;;21.10;76.21;101416.75;4912038;29;20042;-84
2022/08/19 11:04:19;;;;;;;54.65;34.03;;;;;;;21.26;76.69;101414.91;4898755;29;20036;-85
2022/08/19 11:06:47;;;;;;;50.20;35.90;;;;;;;21.41;75.07;101420.38;4883645;29;20041;-85
2022/08/19 11:09:18;;;;;;;54.05;34.25;;;;;;;21.52;75.50;101422.47;4917911;29;20020;-85
2022/08/19 11:11:44;;;;;;;53.03;33.75;;;;;;;21.71;74.89;101424.94;4884439;29;20032;-86
2022/08/19 11:14:14;;;;;;;47.97;34.22;;;;;;;21.67;73.13;101418.88;4886613;29;20043;-85
2022/08/19 11:16:41;;;;;;;46.78;33.78;;;;;;;21.65;72.65;101412.69;4883102;29;20036;-84
2022/08/19 11:19:09;;;;;;;51.67;33.72;;;;;;;21.74;73.73;101419.38;4915676;29;20234;-85
2022/08/19 11:21:38;;;;;;;50.90;34.60;;;;;;;21.92;73.16;101420.09;4889606;29;20123;-85
2022/08/19 11:24:07;;;;;;;45.58;32.90;;;;;;;22.05;71.96;101413.00;4898781;29;20051;-85
2022/08/19 11:26:33;;;;;;;45.08;32.78;;;;;;;22.17;72.01;101417.63;4900880;29;20036;-84
2022/08/19 11:29:00;;;;;;;42.65;31.27;;;;;;;22.15;71.02;101419.53;4884969;29;20036;-85
2022/08/19 11:31:30;;;;;;;48.58;32.60;;;;;;;22.18;70.51;101415.78;4884846;29;20024;-85
2022/08/19 11:33:57;;;;;;;47.47;31.55;;;;;;;22.23;72.54;101411.91;4903884;29;20393;-85